RYR1278 LMML-LICA
Flight info
| Callsign | RYR1278 |
|---|---|
| Flight time | 0h 43m |
| Altitude | 30000 |
| Route | GZO P623 OLLEK DCT ARFOL DCT ROMSU/N0376F180 L137 RCA |
| Aircraft | B738/M-SDE2E3FGHIRWXY/LB1 |
Departure
| Time | 2026-04-17 13:14 |
|---|---|
| Airport | Malta International Airport (LMML) |
Arrival
| Time | 2026-04-17 13:57 |
|---|---|
| Airport | Lamezia Terme Sant'Eufemia International Airport (LICA) |
| Time | Latitude | Longitude | Altitude | Speed | Heading |
|---|---|---|---|---|---|
| 2026-04-17 12:59 | 35.85598 | 14.48285 | 308 ft | 0 kts | 2° |
| 2026-04-17 13:05 | 35.85593 | 14.48285 | 308 ft | 2 kts | 1° |
| 2026-04-17 13:06 | 35.85573 | 14.48285 | 308 ft | 3 kts | 355° |
| 2026-04-17 13:06 | 35.85553 | 14.48288 | 308 ft | 3 kts | 346° |
| 2026-04-17 13:06 | 35.85534 | 14.48296 | 308 ft | 3 kts | 334° |
| 2026-04-17 13:06 | 35.85518 | 14.48308 | 308 ft | 2 kts | 319° |
| 2026-04-17 13:07 | 35.85515 | 14.48311 | 308 ft | 0 kts | 317° |
| 2026-04-17 13:12 | 35.85521 | 14.48304 | 308 ft | 5 kts | 317° |
| 2026-04-17 13:12 | 35.85575 | 14.48241 | 308 ft | 16 kts | 316° |
| 2026-04-17 13:13 | 35.85654 | 14.48183 | 308 ft | 9 kts | 294° |
| 2026-04-17 13:13 | 35.85658 | 14.48064 | 308 ft | 17 kts | 268° |
| 2026-04-17 13:13 | 35.85660 | 14.47941 | 308 ft | 10 kts | 212° |
| 2026-04-17 13:13 | 35.85561 | 14.47978 | 308 ft | 30 kts | 134° |
| 2026-04-17 13:14 | 35.85208 | 14.48416 | 308 ft | 112 kts | 135° |
| 2026-04-17 13:14 | 35.84489 | 14.49309 | 326 ft | 178 kts | 135° |
| 2026-04-17 13:14 | 35.83589 | 14.50411 | 1111 ft | 180 kts | 136° |
| 2026-04-17 13:14 | 35.82719 | 14.51454 | 2266 ft | 168 kts | 135° |
| 2026-04-17 13:15 | 35.81888 | 14.52473 | 2991 ft | 174 kts | 134° |
| 2026-04-17 13:15 | 35.81226 | 14.53779 | 3521 ft | 184 kts | 104° |
| 2026-04-17 13:15 | 35.81305 | 14.55294 | 4330 ft | 178 kts | 68° |
| 2026-04-17 13:15 | 35.82084 | 14.56438 | 5049 ft | 177 kts | 32° |
| 2026-04-17 13:16 | 35.83294 | 14.56901 | 5555 ft | 194 kts | 7° |
| 2026-04-17 13:16 | 35.84720 | 14.57047 | 5869 ft | 218 kts | 6° |
| 2026-04-17 13:16 | 35.86276 | 14.57191 | 6134 ft | 244 kts | 5° |
| 2026-04-17 13:16 | 35.88050 | 14.57351 | 6777 ft | 256 kts | 5° |
| 2026-04-17 13:17 | 35.89872 | 14.57516 | 7430 ft | 270 kts | 5° |
| 2026-04-17 13:17 | 35.91812 | 14.57692 | 7932 ft | 288 kts | 5° |
| 2026-04-17 13:17 | 35.93880 | 14.57882 | 8379 ft | 308 kts | 5° |
| 2026-04-17 13:17 | 35.96088 | 14.58084 | 8764 ft | 329 kts | 5° |
| 2026-04-17 13:18 | 35.98431 | 14.58299 | 9227 ft | 344 kts | 5° |
| 2026-04-17 13:18 | 36.00844 | 14.58522 | 9946 ft | 351 kts | 5° |
| 2026-04-17 13:18 | 36.03292 | 14.58747 | 10741 ft | 355 kts | 5° |
| 2026-04-17 13:18 | 36.05769 | 14.58976 | 11539 ft | 358 kts | 5° |
| 2026-04-17 13:19 | 36.08271 | 14.59207 | 12317 ft | 362 kts | 5° |
| 2026-04-17 13:19 | 36.10796 | 14.59440 | 13099 ft | 365 kts | 5° |
| 2026-04-17 13:19 | 36.13337 | 14.59675 | 13848 ft | 368 kts | 5° |
| 2026-04-17 13:19 | 36.15907 | 14.59913 | 14602 ft | 371 kts | 5° |
| 2026-04-17 13:20 | 36.18493 | 14.60152 | 15306 ft | 374 kts | 5° |
| 2026-04-17 13:20 | 36.21068 | 14.60388 | 16003 ft | 377 kts | 5° |
| 2026-04-17 13:20 | 36.23733 | 14.60634 | 16665 ft | 381 kts | 5° |
| 2026-04-17 13:20 | 36.26350 | 14.60876 | 17324 ft | 384 kts | 5° |
| 2026-04-17 13:21 | 36.29021 | 14.61123 | 17965 ft | 387 kts | 5° |
| 2026-04-17 13:21 | 36.31717 | 14.61372 | 18575 ft | 390 kts | 5° |
| 2026-04-17 13:21 | 36.34445 | 14.61626 | 19158 ft | 394 kts | 5° |
| 2026-04-17 13:21 | 36.37188 | 14.61881 | 19740 ft | 397 kts | 5° |
| 2026-04-17 13:22 | 36.39951 | 14.62138 | 20325 ft | 400 kts | 5° |
| 2026-04-17 13:22 | 36.42749 | 14.62397 | 20868 ft | 403 kts | 5° |
| 2026-04-17 13:22 | 36.45556 | 14.62659 | 21389 ft | 407 kts | 5° |
| 2026-04-17 13:22 | 36.48390 | 14.62922 | 21898 ft | 410 kts | 5° |
| 2026-04-17 13:23 | 36.51245 | 14.63188 | 22392 ft | 413 kts | 5° |
| 2026-04-17 13:23 | 36.54122 | 14.63455 | 22901 ft | 415 kts | 5° |
| 2026-04-17 13:23 | 36.56973 | 14.63722 | 23368 ft | 418 kts | 5° |
| 2026-04-17 13:23 | 36.59883 | 14.63994 | 23817 ft | 421 kts | 5° |
| 2026-04-17 13:24 | 36.62815 | 14.64269 | 24265 ft | 424 kts | 5° |
| 2026-04-17 13:24 | 36.65766 | 14.64546 | 24710 ft | 426 kts | 5° |
| 2026-04-17 13:24 | 36.68730 | 14.64824 | 25134 ft | 429 kts | 5° |
| 2026-04-17 13:24 | 36.71716 | 14.65104 | 25549 ft | 431 kts | 5° |
| 2026-04-17 13:25 | 36.74715 | 14.65386 | 25951 ft | 434 kts | 5° |
| 2026-04-17 13:25 | 36.77736 | 14.65670 | 26338 ft | 436 kts | 5° |
| 2026-04-17 13:25 | 36.80768 | 14.65955 | 26720 ft | 438 kts | 5° |
| 2026-04-17 13:25 | 36.83806 | 14.66361 | 27084 ft | 440 kts | 8° |
| 2026-04-17 13:26 | 36.86831 | 14.67018 | 27440 ft | 442 kts | 11° |
| 2026-04-17 13:26 | 36.89852 | 14.67760 | 27833 ft | 443 kts | 11° |
| 2026-04-17 13:26 | 36.92827 | 14.68468 | 28334 ft | 441 kts | 11° |
| 2026-04-17 13:26 | 36.95884 | 14.69177 | 28835 ft | 439 kts | 11° |
| 2026-04-17 13:27 | 36.98884 | 14.69869 | 29281 ft | 438 kts | 11° |
| 2026-04-17 13:27 | 37.01879 | 14.70557 | 29734 ft | 437 kts | 11° |
| 2026-04-17 13:27 | 37.04874 | 14.71246 | 29957 ft | 439 kts | 11° |
| 2026-04-17 13:27 | 37.07884 | 14.71937 | 30001 ft | 440 kts | 11° |
| 2026-04-17 13:28 | 37.13893 | 14.73319 | 30002 ft | 437 kts | 11° |
| 2026-04-17 13:28 | 37.19351 | 14.74583 | 29993 ft | 436 kts | 12° |
| 2026-04-17 13:29 | 37.25000 | 14.77276 | 29983 ft | 436 kts | 30° |
| 2026-04-17 13:29 | 37.30007 | 14.81554 | 29974 ft | 437 kts | 37° |
| 2026-04-17 13:30 | 37.34775 | 14.86268 | 29967 ft | 437 kts | 38° |
| 2026-04-17 13:30 | 37.39562 | 14.90974 | 29964 ft | 437 kts | 37° |
| 2026-04-17 13:31 | 37.44359 | 14.95679 | 29970 ft | 438 kts | 37° |
| 2026-04-17 13:31 | 37.49003 | 15.00439 | 29982 ft | 438 kts | 40° |
| 2026-04-17 13:32 | 37.53657 | 15.05567 | 29990 ft | 438 kts | 40° |
| 2026-04-17 13:32 | 37.58246 | 15.10532 | 29994 ft | 438 kts | 40° |
| 2026-04-17 13:33 | 37.62871 | 15.15561 | 29994 ft | 438 kts | 40° |
| 2026-04-17 13:33 | 37.67428 | 15.20529 | 29994 ft | 432 kts | 40° |
| 2026-04-17 13:34 | 37.71943 | 15.25458 | 29995 ft | 430 kts | 40° |
| 2026-04-17 13:34 | 37.74212 | 15.27934 | 29799 ft | 431 kts | 40° |
| 2026-04-17 13:34 | 37.76463 | 15.30391 | 29500 ft | 423 kts | 40° |
| 2026-04-17 13:35 | 37.78667 | 15.32798 | 29070 ft | 417 kts | 40° |
| 2026-04-17 13:35 | 37.80776 | 15.35089 | 28597 ft | 415 kts | 40° |
| 2026-04-17 13:35 | 37.82958 | 15.37462 | 28107 ft | 412 kts | 40° |
| 2026-04-17 13:35 | 37.85131 | 15.39799 | 27620 ft | 409 kts | 40° |
| 2026-04-17 13:36 | 37.87172 | 15.42007 | 27160 ft | 407 kts | 40° |
| 2026-04-17 13:36 | 37.89425 | 15.44460 | 26652 ft | 404 kts | 40° |
| 2026-04-17 13:36 | 37.91549 | 15.46780 | 26171 ft | 402 kts | 40° |
| 2026-04-17 13:36 | 37.93635 | 15.49062 | 25695 ft | 399 kts | 40° |
| 2026-04-17 13:37 | 37.95756 | 15.51386 | 25209 ft | 397 kts | 40° |
| 2026-04-17 13:37 | 37.97802 | 15.53630 | 24739 ft | 394 kts | 40° |
| 2026-04-17 13:37 | 37.99909 | 15.55942 | 24254 ft | 392 kts | 40° |
| 2026-04-17 13:37 | 38.01654 | 15.57857 | 23849 ft | 390 kts | 40° |
| 2026-04-17 13:38 | 38.03671 | 15.60072 | 23381 ft | 388 kts | 40° |
| 2026-04-17 13:38 | 38.05706 | 15.62305 | 22908 ft | 386 kts | 40° |
| 2026-04-17 13:38 | 38.07726 | 15.64527 | 22435 ft | 383 kts | 40° |
| 2026-04-17 13:38 | 38.09754 | 15.66718 | 21964 ft | 381 kts | 39° |
| 2026-04-17 13:39 | 38.11793 | 15.68855 | 21491 ft | 380 kts | 39° |
| 2026-04-17 13:39 | 38.13828 | 15.70991 | 21021 ft | 378 kts | 39° |
| 2026-04-17 13:39 | 38.15846 | 15.73120 | 20551 ft | 376 kts | 39° |
| 2026-04-17 13:39 | 38.17849 | 15.75237 | 20084 ft | 373 kts | 39° |
| 2026-04-17 13:40 | 38.19840 | 15.77345 | 19618 ft | 372 kts | 39° |
| 2026-04-17 13:40 | 38.21818 | 15.79442 | 19156 ft | 369 kts | 39° |
| 2026-04-17 13:40 | 38.23790 | 15.81536 | 18695 ft | 367 kts | 39° |
| 2026-04-17 13:40 | 38.25746 | 15.83616 | 18235 ft | 366 kts | 39° |
| 2026-04-17 13:41 | 38.27693 | 15.85686 | 17780 ft | 364 kts | 39° |
| 2026-04-17 13:41 | 38.29627 | 15.87745 | 17327 ft | 362 kts | 39° |
| 2026-04-17 13:41 | 38.31556 | 15.89800 | 16875 ft | 360 kts | 39° |
| 2026-04-17 13:41 | 38.33468 | 15.91837 | 16430 ft | 358 kts | 39° |
| 2026-04-17 13:42 | 38.35379 | 15.93852 | 15984 ft | 356 kts | 39° |
| 2026-04-17 13:42 | 38.37292 | 15.95871 | 15538 ft | 354 kts | 39° |
| 2026-04-17 13:42 | 38.39171 | 15.97862 | 15100 ft | 352 kts | 39° |
| 2026-04-17 13:42 | 38.41049 | 15.99858 | 14661 ft | 350 kts | 39° |
| 2026-04-17 13:43 | 38.42924 | 16.01830 | 14224 ft | 348 kts | 39° |
| 2026-04-17 13:43 | 38.44782 | 16.03800 | 13789 ft | 346 kts | 39° |
| 2026-04-17 13:43 | 38.46626 | 16.05765 | 13356 ft | 345 kts | 39° |
| 2026-04-17 13:43 | 38.48432 | 16.07698 | 12933 ft | 343 kts | 39° |
| 2026-04-17 13:44 | 38.49383 | 16.08717 | 12710 ft | 342 kts | 39° |
| 2026-04-17 13:44 | 38.51788 | 16.11298 | 12123 ft | 340 kts | 39° |
| 2026-04-17 13:44 | 38.53593 | 16.13237 | 11687 ft | 338 kts | 39° |
| 2026-04-17 13:44 | 38.55386 | 16.15166 | 11256 ft | 337 kts | 39° |
| 2026-04-17 13:45 | 38.57174 | 16.17089 | 10828 ft | 335 kts | 39° |
| 2026-04-17 13:45 | 38.58957 | 16.19008 | 10408 ft | 333 kts | 39° |
| 2026-04-17 13:45 | 38.60126 | 16.20267 | 10272 ft | 328 kts | 39° |
| 2026-04-17 13:45 | 38.61838 | 16.22111 | 10202 ft | 315 kts | 39° |
| 2026-04-17 13:46 | 38.63489 | 16.23887 | 10130 ft | 304 kts | 39° |
| 2026-04-17 13:46 | 38.65077 | 16.25598 | 10058 ft | 293 kts | 39° |
| 2026-04-17 13:46 | 38.66606 | 16.27250 | 10015 ft | 282 kts | 39° |
| 2026-04-17 13:46 | 38.68097 | 16.28847 | 9752 ft | 279 kts | 39° |
| 2026-04-17 13:47 | 38.69585 | 16.30444 | 9418 ft | 280 kts | 39° |
| 2026-04-17 13:47 | 38.71074 | 16.32047 | 9098 ft | 279 kts | 39° |
| 2026-04-17 13:47 | 38.72558 | 16.33645 | 8781 ft | 279 kts | 39° |
| 2026-04-17 13:47 | 38.74040 | 16.35247 | 8464 ft | 278 kts | 40° |
| 2026-04-17 13:48 | 38.75292 | 16.37129 | 8146 ft | 279 kts | 58° |
| 2026-04-17 13:48 | 38.76081 | 16.39393 | 7828 ft | 279 kts | 69° |
| 2026-04-17 13:48 | 38.76597 | 16.41788 | 7501 ft | 280 kts | 76° |
| 2026-04-17 13:48 | 38.76985 | 16.44230 | 7175 ft | 279 kts | 77° |
| 2026-04-17 13:49 | 38.77368 | 16.46612 | 6847 ft | 266 kts | 76° |
| 2026-04-17 13:49 | 38.77756 | 16.48869 | 6543 ft | 253 kts | 76° |
| 2026-04-17 13:49 | 38.78130 | 16.50988 | 6261 ft | 245 kts | 75° |
| 2026-04-17 13:49 | 38.78514 | 16.53151 | 5870 ft | 252 kts | 75° |
| 2026-04-17 13:50 | 38.78902 | 16.55325 | 5651 ft | 245 kts | 75° |
| 2026-04-17 13:50 | 38.79488 | 16.57275 | 5416 ft | 228 kts | 52° |
| 2026-04-17 13:50 | 38.80687 | 16.58504 | 4977 ft | 221 kts | 20° |
| 2026-04-17 13:50 | 38.82184 | 16.58662 | 4502 ft | 218 kts | 347° |
| 2026-04-17 13:51 | 38.83530 | 16.57797 | 4049 ft | 218 kts | 326° |
| 2026-04-17 13:51 | 38.84733 | 16.56620 | 3593 ft | 217 kts | 324° |
| 2026-04-17 13:51 | 38.85900 | 16.55438 | 3184 ft | 215 kts | 322° |
| 2026-04-17 13:51 | 38.86796 | 16.53928 | 3004 ft | 213 kts | 295° |
| 2026-04-17 13:52 | 38.87209 | 16.52160 | 2995 ft | 198 kts | 287° |
| 2026-04-17 13:52 | 38.87469 | 16.50472 | 3004 ft | 188 kts | 282° |
| 2026-04-17 13:52 | 38.87662 | 16.48870 | 2986 ft | 181 kts | 281° |
| 2026-04-17 13:52 | 38.87852 | 16.47261 | 2986 ft | 179 kts | 281° |
| 2026-04-17 13:53 | 38.88035 | 16.45699 | 2960 ft | 176 kts | 281° |
| 2026-04-17 13:53 | 38.88215 | 16.44164 | 2860 ft | 172 kts | 281° |
| 2026-04-17 13:53 | 38.88389 | 16.42671 | 2621 ft | 171 kts | 281° |
| 2026-04-17 13:53 | 38.88562 | 16.41187 | 2391 ft | 164 kts | 281° |
| 2026-04-17 13:54 | 38.88879 | 16.38473 | 1978 ft | 145 kts | 281° |
| 2026-04-17 13:54 | 38.89026 | 16.37218 | 1785 ft | 141 kts | 280° |
| 2026-04-17 13:55 | 38.89315 | 16.34739 | 1419 ft | 141 kts | 278° |
| 2026-04-17 13:55 | 38.89481 | 16.33477 | 1273 ft | 140 kts | 278° |
| 2026-04-17 13:55 | 38.89751 | 16.31099 | 813 ft | 130 kts | 276° |
| 2026-04-17 13:56 | 38.89996 | 16.28845 | 467 ft | 127 kts | 277° |
| 2026-04-17 13:56 | 38.90141 | 16.27681 | 336 ft | 128 kts | 277° |
| 2026-04-17 13:56 | 38.90270 | 16.26527 | 136 ft | 130 kts | 277° |
| 2026-04-17 13:57 | 38.90395 | 16.25438 | 62 ft | 111 kts | 277° |
| 2026-04-17 13:57 | 38.90509 | 16.24521 | 54 ft | 86 kts | 278° |
| 2026-04-17 13:57 | 38.90661 | 16.23599 | 54 ft | 35 kts | 319° |
| 2026-04-17 13:58 | 38.90772 | 16.23487 | 54 ft | 16 kts | 355° |